Time;durP1;ratioP1;P1;durP2;ratioP2;P2;SDS_P1;SDS_P2;PMS_P1;PMS_P2;Temp;Humidity;BMP_temperature;BMP_pressure;BME280_temperature;BME280_humidity;BME280_pressure;Samples;Min_cycle;Max_cycle;Signal;HPM_P1;HPM_P2
2022/01/19 00:01:30;;;;;;;76.43;27.30;;;6.00;99.90;;;;;;5048032;28;20511;-73
2022/01/19 00:03:56;;;;;;;76.93;25.55;;;6.00;99.90;;;;;;5047663;28;20095;-73
2022/01/19 00:06:21;;;;;;;68.00;25.38;;;6.00;99.90;;;;;;5049309;28;20145;-73
2022/01/19 00:08:47;;;;;;;63.78;24.80;;;6.00;99.90;;;;;;5050225;28;20171;-73
2022/01/19 00:11:14;;;;;;;68.57;24.52;;;6.00;99.90;;;;;;5057167;28;20036;-73
2022/01/19 00:13:40;;;;;;;67.97;24.85;;;5.90;99.90;;;;;;5038074;28;20101;-73
2022/01/19 00:16:05;;;;;;;70.22;23.45;;;6.00;99.90;;;;;;5046027;28;20391;-73
2022/01/19 00:18:31;;;;;;;57.15;22.40;;;5.90;99.90;;;;;;5044725;28;20052;-73
2022/01/19 00:20:56;;;;;;;54.97;22.00;;;5.90;99.90;;;;;;5053552;28;20180;-73
2022/01/19 00:23:23;;;;;;;54.70;20.42;;;5.90;99.90;;;;;;5046248;28;20148;-73
2022/01/19 00:25:51;;;;;;;54.08;20.50;;;5.90;99.90;;;;;;5055111;28;20541;-73
2022/01/19 00:28:17;;;;;;;53.45;20.88;;;5.90;99.90;;;;;;5054774;28;20341;-73
2022/01/19 00:30:44;;;;;;;54.67;21.08;;;5.90;99.90;;;;;;5055746;28;20415;-72
2022/01/19 00:33:10;;;;;;;54.45;21.10;;;5.90;99.90;;;;;;5064236;28;20057;-73
2022/01/19 00:35:36;;;;;;;50.03;20.42;;;5.90;99.90;;;;;;5044146;28;20044;-73
2022/01/19 00:38:03;;;;;;;60.55;22.50;;;5.90;99.90;;;;;;5046332;28;20037;-73
2022/01/19 00:40:29;;;;;;;62.95;22.40;;;5.80;99.90;;;;;;5046988;28;20056;-73
2022/01/19 00:42:54;;;;;;;63.20;22.92;;;5.70;99.90;;;;;;5049631;28;20040;-73
2022/01/19 00:45:21;;;;;;;64.05;23.00;;;5.70;99.90;;;;;;5052386;28;20124;-73
2022/01/19 00:47:48;;;;;;;69.03;25.70;;;5.70;99.90;;;;;;5044503;28;20096;-73
2022/01/19 00:50:19;;;;;;;63.70;23.65;;;5.70;99.90;;;;;;5043806;28;20045;-73
2022/01/19 00:52:45;;;;;;;68.30;23.98;;;5.60;99.90;;;;;;5046575;28;20531;-73
2022/01/19 00:55:12;;;;;;;63.45;22.75;;;5.60;99.90;;;;;;5036392;28;20037;-73
2022/01/19 00:57:38;;;;;;;68.28;23.45;;;5.70;99.90;;;;;;5043661;28;20041;-72
2022/01/19 01:00:06;;;;;;;59.92;23.13;;;5.70;99.90;;;;;;5048322;28;20057;-73
2022/01/19 01:02:32;;;;;;;60.38;23.08;;;5.80;99.90;;;;;;5048455;28;20115;-72
2022/01/19 01:04:57;;;;;;;59.40;22.13;;;5.70;99.90;;;;;;5040992;28;20052;-73
2022/01/19 01:07:23;;;;;;;59.70;22.42;;;5.70;99.90;;;;;;5046530;28;20072;-73
2022/01/19 01:09:48;;;;;;;61.42;21.92;;;5.70;99.90;;;;;;5046549;28;20120;-73
2022/01/19 01:12:22;;;;;;;65.53;24.30;;;5.70;99.90;;;;;;5052970;28;20450;-72
2022/01/19 01:20:17;;;;;;;63.67;23.70;;;5.70;99.90;;;;;;5043653;28;20440;-72
2022/01/19 01:22:43;;;;;;;58.33;23.25;;;5.70;99.90;;;;;;5042683;28;20041;-72
2022/01/19 01:25:09;;;;;;;63.08;23.55;;;5.70;99.90;;;;;;5042295;28;20045;-73
2022/01/19 01:27:36;;;;;;;81.50;25.58;;;5.70;99.90;;;;;;5046922;28;20045;-72
2022/01/19 01:30:03;;;;;;;74.93;26.23;;;5.70;99.90;;;;;;5042512;28;20084;-72
2022/01/19 01:32:28;;;;;;;63.75;24.75;;;5.70;99.90;;;;;;5050371;28;20048;-72
2022/01/19 01:34:54;;;;;;;65.45;25.48;;;5.70;99.90;;;;;;5042642;28;20484;-72
2022/01/19 01:37:19;;;;;;;52.88;22.77;;;5.70;99.90;;;;;;5041827;28;20136;-72
2022/01/19 01:39:45;;;;;;;67.20;23.88;;;5.70;99.90;;;;;;5050327;28;20127;-72
2022/01/19 01:42:17;;;;;;;66.55;24.33;;;5.70;99.90;;;;;;5047939;28;20048;-72
2022/01/19 01:44:46;;;;;;;77.38;25.38;;;5.70;99.90;;;;;;5040884;28;20081;-72
2022/01/19 01:47:13;;;;;;;59.92;23.40;;;5.70;99.90;;;;;;5047754;28;20472;-72
2022/01/19 01:53:16;;;;;;;55.45;24.77;;;5.70;99.90;;;;;;5046623;28;20084;-72
2022/01/19 01:55:12;;;;;;;42.78;20.95;;;5.70;99.90;;;;;;5044233;28;20400;-72
2022/01/19 01:57:38;;;;;;;46.50;20.63;;;5.70;99.90;;;;;;5031646;28;20073;-72
2022/01/19 02:00:06;;;;;;;41.67;20.05;;;5.80;99.90;;;;;;5035015;28;20085;-72
2022/01/19 02:02:31;;;;;;;58.83;20.48;;;5.70;99.90;;;;;;5035724;28;20067;-72
2022/01/19 02:04:57;;;;;;;46.95;20.58;;;5.70;99.90;;;;;;5043176;28;20053;-72
2022/01/19 02:10:18;;;;;;;47.08;21.48;;;5.70;99.90;;;;;;5036492;28;20045;-72
2022/01/19 02:23:56;;;;;;;48.45;22.13;;;5.70;99.90;;;;;;5016598;28;20416;-72
2022/01/19 02:29:22;;;;;;;48.10;21.67;;;5.60;99.90;;;;;;5021898;28;20433;-72
2022/01/19 02:40:23;;;;;;;41.92;20.02;;;5.50;99.90;;;;;;5049026;28;20045;-72
2022/01/19 02:51:01;;;;;;;42.90;20.50;;;5.50;99.90;;;;;;5051327;28;20049;-71
2022/01/19 02:53:26;;;;;;;72.30;21.77;;;5.50;99.90;;;;;;5047460;28;20132;-72
2022/01/19 02:55:52;;;;;;;81.82;22.67;;;5.50;99.90;;;;;;5045387;28;20042;-72
2022/01/19 02:58:21;;;;;;;113.55;23.85;;;5.40;99.90;;;;;;5041648;28;20053;-72
2022/01/19 03:08:47;;;;;;;69.20;20.63;;;5.30;99.90;;;;;;5057934;28;20118;-72
2022/01/19 03:11:16;;;;;;;47.50;20.60;;;5.30;99.90;;;;;;5047947;28;20075;-72
2022/01/19 03:13:42;;;;;;;59.30;21.45;;;5.30;99.90;;;;;;5042434;28;20041;-72
2022/01/19 03:16:08;;;;;;;77.13;22.13;;;5.30;99.90;;;;;;5049489;28;20136;-72
2022/01/19 03:18:33;;;;;;;77.13;23.00;;;5.30;99.90;;;;;;5052413;28;20215;-72
2022/01/19 03:20:59;;;;;;;46.28;20.77;;;5.30;99.90;;;;;;5044084;28;20129;-72
2022/01/19 03:23:25;;;;;;;49.78;21.38;;;5.30;99.90;;;;;;5052392;28;20087;-72
2022/01/19 03:25:52;;;;;;;83.30;22.13;;;5.20;99.90;;;;;;5045266;28;20044;-72
2022/01/19 03:28:18;;;;;;;107.20;21.98;;;5.10;99.90;;;;;;5046497;28;20033;-72
2022/01/19 03:30:45;;;;;;;37.50;18.80;;;5.00;99.90;;;;;;5042997;28;20431;-72
2022/01/19 03:33:10;;;;;;;53.55;19.73;;;5.00;99.90;;;;;;5040285;28;20112;-72
2022/01/19 03:35:38;;;;;;;36.05;19.23;;;5.00;99.90;;;;;;5026027;28;20824;-72
2022/01/19 03:38:05;;;;;;;51.33;19.80;;;5.00;99.90;;;;;;5047458;28;20530;-72
2022/01/19 03:40:30;;;;;;;39.53;19.05;;;5.00;99.90;;;;;;5051472;28;20499;-72
2022/01/19 03:42:56;;;;;;;43.88;19.77;;;5.00;99.90;;;;;;5046807;28;20033;-72
2022/01/19 03:45:22;;;;;;;40.42;18.63;;;5.00;99.90;;;;;;5048218;28;20144;-71
2022/01/19 03:48:05;;;;;;;35.10;18.02;;;5.00;99.90;;;;;;5049214;28;20401;-71
2022/01/19 03:50:31;;;;;;;43.88;19.05;;;5.00;99.90;;;;;;5048826;28;20484;-71
2022/01/19 03:52:56;;;;;;;51.20;19.02;;;4.90;99.90;;;;;;5040968;28;20048;-71
2022/01/19 03:55:22;;;;;;;36.78;18.98;;;4.80;99.90;;;;;;5048483;28;20116;-74
2022/01/19 03:57:47;;;;;;;60.75;20.27;;;4.90;99.90;;;;;;5056010;28;20073;-71
2022/01/19 04:00:14;;;;;;;70.45;20.85;;;4.90;99.90;;;;;;5045185;28;20052;-71
2022/01/19 04:02:40;;;;;;;87.75;20.30;;;4.90;99.90;;;;;;5045640;28;20044;-71
2022/01/19 04:05:15;;;;;;;66.35;19.88;;;4.70;99.90;;;;;;5042634;28;20044;-71
2022/01/19 04:07:40;;;;;;;65.22;21.27;;;4.60;99.90;;;;;;5022474;28;20175;-71
2022/01/19 04:10:06;;;;;;;84.93;20.95;;;4.50;99.90;;;;;;5050141;28;20483;-71
2022/01/19 04:12:46;;;;;;;49.03;19.38;;;4.50;99.90;;;;;;5044392;28;20051;-71
2022/01/19 04:15:14;;;;;;;58.13;18.65;;;4.40;99.90;;;;;;5046983;28;20045;-71
2022/01/19 04:17:46;;;;;;;39.47;18.55;;;4.40;99.90;;;;;;5040218;28;20388;-71
2022/01/19 04:20:12;;;;;;;36.53;17.88;;;4.40;99.90;;;;;;5047365;28;20041;-71
2022/01/19 04:22:38;;;;;;;35.97;17.70;;;4.40;99.90;;;;;;5048345;28;20544;-72
2022/01/19 04:25:04;;;;;;;35.58;17.35;;;4.40;99.90;;;;;;5040572;28;20064;-71
2022/01/19 04:32:41;;;;;;;40.72;19.25;;;4.30;99.90;;;;;;5037414;28;20045;-71
2022/01/19 04:35:09;;;;;;;38.13;19.13;;;4.40;99.90;;;;;;5034471;28;20140;-71
2022/01/19 04:45:55;;;;;;;39.15;18.27;;;4.40;99.90;;;;;;5036191;28;20067;-71
2022/01/19 04:48:57;;;;;;;48.88;17.40;;;4.30;99.90;;;;;;5033748;28;20466;-71
2022/01/19 05:07:43;;;;;;;36.00;19.00;;;4.10;99.90;;;;;;5033175;28;20203;-71
2022/01/19 05:15:38;;;;;;;33.15;18.35;;;4.40;99.90;;;;;;5032990;28;20048;-71
2022/01/19 05:18:04;;;;;;;38.90;20.02;;;4.40;99.90;;;;;;5047062;28;20041;-72
2022/01/19 05:20:30;;;;;;;34.95;19.70;;;4.50;99.90;;;;;;5047005;28;20186;-71
2022/01/19 05:22:56;;;;;;;36.70;18.65;;;4.50;99.90;;;;;;5043694;28;20164;-72
2022/01/19 05:25:21;;;;;;;36.88;20.85;;;4.50;99.90;;;;;;5040825;28;20128;-71
2022/01/19 05:27:47;;;;;;;35.20;19.30;;;4.60;99.90;;;;;;5048121;28;20437;-71
2022/01/19 05:30:14;;;;;;;36.08;20.33;;;4.60;99.90;;;;;;5045210;28;20041;-74
2022/01/19 05:32:40;;;;;;;35.78;18.75;;;4.60;99.90;;;;;;5043627;28;20440;-73
2022/01/19 05:35:06;;;;;;;37.33;19.23;;;4.60;99.90;;;;;;5046730;28;20088;-71
2022/01/19 05:37:36;;;;;;;33.55;19.08;;;4.50;99.90;;;;;;5042828;28;20132;-71
2022/01/19 05:40:07;;;;;;;37.00;18.58;;;4.50;99.90;;;;;;5047035;28;20053;-71
2022/01/19 05:42:33;;;;;;;35.42;19.15;;;4.50;99.90;;;;;;5041383;28;20514;-71
2022/01/19 05:44:58;;;;;;;35.97;19.02;;;4.40;99.90;;;;;;5053470;28;20045;-71
2022/01/19 05:47:24;;;;;;;35.17;19.77;;;4.40;99.90;;;;;;5043580;28;20060;-71
2022/01/19 05:49:49;;;;;;;36.65;19.50;;;4.30;99.90;;;;;;5053308;28;20059;-71
2022/01/19 05:52:15;;;;;;;36.42;19.33;;;4.40;99.90;;;;;;5040926;28;20055;-71
2022/01/19 05:54:41;;;;;;;35.53;20.13;;;4.50;99.90;;;;;;5040059;28;20079;-71
2022/01/19 05:57:07;;;;;;;40.30;22.00;;;4.50;99.90;;;;;;5043909;28;20337;-71
2022/01/19 05:59:33;;;;;;;36.08;19.92;;;4.60;99.90;;;;;;5031873;28;20107;-71
2022/01/19 06:01:59;;;;;;;37.03;20.13;;;4.60;99.90;;;;;;5037363;28;20087;-72
2022/01/19 06:04:24;;;;;;;35.05;19.35;;;4.60;99.90;;;;;;5042204;28;20426;-73
2022/01/19 06:06:52;;;;;;;36.72;20.10;;;4.60;99.90;;;;;;5044223;28;20055;-73
2022/01/19 06:09:48;;;;;;;35.22;19.58;;;4.60;99.90;;;;;;5045376;28;20045;-75
2022/01/19 06:12:09;;;;;;;35.38;19.45;;;4.70;99.90;;;;;;5045777;28;20102;-72
2022/01/19 06:14:37;;;;;;;35.25;19.02;;;4.70;99.90;;;;;;5048764;28;20048;-71
2022/01/19 06:17:05;;;;;;;34.65;19.75;;;4.70;99.90;;;;;;5051290;28;20053;-71
2022/01/19 06:19:31;;;;;;;34.25;19.23;;;4.70;99.90;;;;;;5038940;28;20103;-72
2022/01/19 06:21:56;;;;;;;34.75;19.45;;;4.70;99.90;;;;;;5040311;28;20135;-72
2022/01/19 06:24:22;;;;;;;34.75;19.30;;;4.70;99.90;;;;;;5043458;28;20048;-71
2022/01/19 06:26:48;;;;;;;37.72;20.17;;;4.60;99.90;;;;;;5045871;28;20329;-72
2022/01/19 06:29:13;;;;;;;39.15;20.00;;;4.50;99.90;;;;;;5046979;28;20432;-72
2022/01/19 06:31:39;;;;;;;35.72;19.92;;;4.50;99.90;;;;;;5036918;28;20041;-71
2022/01/19 06:34:05;;;;;;;37.63;20.08;;;4.40;99.90;;;;;;5040970;28;20143;-72
2022/01/19 06:36:30;;;;;;;35.45;19.67;;;4.50;99.90;;;;;;5042624;28;20040;-71
2022/01/19 06:38:56;;;;;;;39.22;20.00;;;4.40;99.90;;;;;;5046470;28;20049;-74
2022/01/19 06:41:22;;;;;;;40.15;21.13;;;4.40;99.90;;;;;;5044599;28;20495;-71
2022/01/19 06:43:47;;;;;;;39.47;20.90;;;4.40;99.90;;;;;;5044913;28;20033;-71
2022/01/19 06:46:13;;;;;;;35.15;19.05;;;4.50;99.90;;;;;;5038513;28;20103;-73
2022/01/19 06:48:38;;;;;;;36.35;20.45;;;4.50;99.90;;;;;;5032420;28;20038;-72
2022/01/19 06:51:04;;;;;;;40.88;21.00;;;4.50;99.90;;;;;;5035795;28;20089;-72
2022/01/19 06:53:30;;;;;;;37.42;19.25;;;4.50;99.90;;;;;;5047693;28;20071;-73
2022/01/19 06:55:57;;;;;;;37.95;20.08;;;4.50;99.90;;;;;;5053005;28;20045;-73
2022/01/19 06:58:24;;;;;;;39.78;21.30;;;4.50;99.90;;;;;;5052009;28;20055;-74
2022/01/19 07:00:50;;;;;;;37.67;20.23;;;4.50;99.90;;;;;;5048668;28;20508;-71
2022/01/19 07:03:16;;;;;;;38.80;21.23;;;4.50;99.90;;;;;;5040769;28;20051;-72
2022/01/19 07:05:42;;;;;;;39.85;20.25;;;4.60;99.90;;;;;;5053366;28;20055;-72
2022/01/19 07:08:08;;;;;;;36.75;19.77;;;4.60;99.90;;;;;;5055910;28;20049;-71
2022/01/19 07:10:34;;;;;;;42.03;21.25;;;4.50;99.90;;;;;;5056342;28;20127;-71
2022/01/19 07:13:00;;;;;;;37.20;19.90;;;4.50;99.90;;;;;;5053802;28;20094;-71
2022/01/19 07:15:25;;;;;;;39.08;20.85;;;4.50;99.90;;;;;;5057110;28;20063;-72
2022/01/19 07:17:51;;;;;;;38.05;20.77;;;4.50;99.90;;;;;;5050225;28;20131;-71
2022/01/19 07:20:17;;;;;;;38.25;20.05;;;4.50;99.90;;;;;;5053906;28;20076;-72
2022/01/19 07:22:43;;;;;;;38.00;20.95;;;4.50;99.90;;;;;;5049662;28;20033;-71
2022/01/19 07:25:09;;;;;;;37.92;20.25;;;4.50;99.90;;;;;;5051435;28;20045;-71
2022/01/19 07:27:35;;;;;;;38.22;20.08;;;4.50;99.90;;;;;;5053731;28;20407;-71
2022/01/19 07:30:01;;;;;;;37.88;20.27;;;4.50;99.90;;;;;;5053681;28;20040;-72
2022/01/19 07:32:30;;;;;;;38.15;19.30;;;4.50;99.90;;;;;;5052320;28;20119;-71
2022/01/19 07:34:56;;;;;;;35.42;19.65;;;4.40;99.90;;;;;;5052882;28;20037;-71
2022/01/19 07:37:22;;;;;;;35.90;19.67;;;4.50;99.90;;;;;;5055693;28;20056;-71
2022/01/19 07:39:48;;;;;;;37.85;20.23;;;4.50;99.90;;;;;;5052229;28;20116;-72
2022/01/19 07:42:13;;;;;;;39.85;20.23;;;4.50;99.90;;;;;;5053851;28;20125;-70
2022/01/19 07:44:39;;;;;;;38.55;20.27;;;4.60;99.90;;;;;;5058924;28;20396;-71
2022/01/19 07:47:06;;;;;;;32.78;18.73;;;4.60;99.90;;;;;;5053072;28;20045;-72
2022/01/19 07:49:31;;;;;;;38.15;20.02;;;4.60;99.90;;;;;;5052700;28;20053;-72
2022/01/19 07:51:57;;;;;;;36.65;20.50;;;4.60;99.90;;;;;;5053858;28;20199;-72
2022/01/19 07:54:23;;;;;;;38.03;19.60;;;4.70;99.90;;;;;;5046969;28;20111;-72
2022/01/19 07:56:49;;;;;;;35.88;19.30;;;4.70;99.90;;;;;;5055316;28;20033;-72
2022/01/19 07:59:16;;;;;;;40.15;20.38;;;4.70;99.90;;;;;;5052162;28;20052;-71
2022/01/19 08:01:42;;;;;;;41.05;20.45;;;4.70;99.90;;;;;;5044731;28;20053;-72
2022/01/19 08:04:07;;;;;;;37.88;20.00;;;4.70;99.90;;;;;;5048499;28;20404;-70
2022/01/19 08:06:33;;;;;;;35.22;19.33;;;4.70;99.90;;;;;;5056332;28;20048;-71
2022/01/19 08:08:59;;;;;;;38.50;20.38;;;4.70;99.90;;;;;;5054029;28;20087;-71
2022/01/19 08:11:24;;;;;;;36.03;19.45;;;4.70;99.90;;;;;;5042624;28;20044;-70
2022/01/19 08:13:50;;;;;;;34.15;19.55;;;4.70;99.90;;;;;;5049014;28;20045;-71
2022/01/19 08:16:17;;;;;;;37.35;20.08;;;4.70;99.90;;;;;;5046943;28;20120;-72
2022/01/19 08:18:42;;;;;;;39.08;19.95;;;4.70;99.90;;;;;;5041700;28;20169;-70
2022/01/19 08:21:08;;;;;;;38.97;20.27;;;4.70;99.90;;;;;;5042242;28;20460;-70
2022/01/19 08:23:33;;;;;;;37.40;18.83;;;4.70;99.90;;;;;;5030989;28;20041;-70
2022/01/19 08:25:59;;;;;;;35.53;19.13;;;4.70;99.90;;;;;;5046253;28;20048;-69
2022/01/19 08:28:24;;;;;;;33.38;19.13;;;4.70;99.90;;;;;;5050051;28;20344;-69
2022/01/19 08:30:50;;;;;;;36.40;18.55;;;4.80;99.90;;;;;;5050607;28;20486;-69
2022/01/19 08:33:16;;;;;;;37.35;20.10;;;4.80;99.90;;;;;;5048629;28;20155;-69
2022/01/19 08:35:42;;;;;;;38.65;19.83;;;4.80;99.90;;;;;;5050990;28;20898;-70
2022/01/19 08:38:08;;;;;;;38.17;19.42;;;4.80;99.90;;;;;;5051593;28;20128;-70
2022/01/19 08:40:36;;;;;;;35.20;19.95;;;4.90;99.90;;;;;;5049249;28;20076;-69
2022/01/19 08:43:02;;;;;;;37.70;19.73;;;4.80;99.90;;;;;;5049270;28;20056;-68
2022/01/19 08:45:27;;;;;;;36.88;20.70;;;4.80;99.90;;;;;;5049006;28;20124;-69
2022/01/19 08:47:53;;;;;;;35.47;19.55;;;4.90;99.90;;;;;;5047609;28;20094;-69
2022/01/19 08:50:19;;;;;;;34.95;19.15;;;4.90;99.90;;;;;;5049402;28;20052;-69
2022/01/19 08:52:45;;;;;;;34.25;19.67;;;4.90;99.90;;;;;;5049045;28;20044;-70
2022/01/19 08:55:11;;;;;;;33.08;19.08;;;4.90;99.90;;;;;;5046858;28;20083;-70
2022/01/19 08:57:37;;;;;;;38.70;20.15;;;4.90;99.90;;;;;;5049740;28;20460;-72
2022/01/19 09:00:07;;;;;;;33.22;20.08;;;4.90;99.90;;;;;;5044739;28;20049;-73
2022/01/19 09:02:33;;;;;;;35.30;19.73;;;5.00;99.90;;;;;;5038625;28;20503;-71
2022/01/19 09:05:00;;;;;;;34.25;19.48;;;5.00;99.90;;;;;;5030650;28;20076;-69
2022/01/19 09:07:26;;;;;;;38.50;21.08;;;5.10;99.90;;;;;;5044989;28;20096;-71
2022/01/19 09:09:51;;;;;;;36.97;20.42;;;5.00;99.90;;;;;;5040805;28;20064;-71
2022/01/19 09:12:17;;;;;;;38.88;21.52;;;5.10;99.90;;;;;;5050123;28;20055;-71
2022/01/19 09:14:42;;;;;;;37.38;20.88;;;5.10;99.90;;;;;;5049872;28;20037;-73
2022/01/19 09:17:08;;;;;;;37.08;20.73;;;5.20;99.90;;;;;;5050544;28;20049;-73
2022/01/19 09:19:37;;;;;;;41.13;23.67;;;5.20;99.90;;;;;;5053728;28;20037;-71
2022/01/19 09:22:03;;;;;;;47.47;25.20;;;5.30;99.90;;;;;;5049060;28;20160;-73
2022/01/19 09:24:30;;;;;;;46.47;24.67;;;5.20;99.90;;;;;;5048231;28;20116;-72
2022/01/19 09:26:56;;;;;;;49.15;25.20;;;5.20;99.90;;;;;;5048001;28;20051;-72
2022/01/19 09:29:21;;;;;;;47.10;24.60;;;5.30;99.90;;;;;;5048991;28;20033;-72
2022/01/19 09:31:47;;;;;;;42.55;24.88;;;5.20;99.90;;;;;;5049340;28;20126;-72
2022/01/19 09:34:20;;;;;;;46.95;24.58;;;5.20;99.90;;;;;;5048314;28;20045;-71
2022/01/19 09:36:46;;;;;;;48.75;26.25;;;5.20;99.90;;;;;;5030856;28;20246;-70
2022/01/19 09:39:15;;;;;;;47.53;26.00;;;5.30;99.90;;;;;;5048608;28;20041;-69
2022/01/19 09:41:41;;;;;;;46.13;25.58;;;5.20;99.90;;;;;;5047944;28;20059;-70
2022/01/19 09:44:08;;;;;;;51.78;26.90;;;5.20;99.90;;;;;;5047881;28;20111;-70
2022/01/19 09:46:34;;;;;;;51.15;26.02;;;5.20;99.90;;;;;;5050276;28;20072;-72
2022/01/19 09:49:00;;;;;;;50.80;25.65;;;5.30;99.90;;;;;;5029807;28;20239;-69
2022/01/19 09:51:27;;;;;;;56.00;28.35;;;5.30;99.90;;;;;;5056306;28;20145;-70
2022/01/19 09:53:53;;;;;;;52.78;28.15;;;5.30;99.90;;;;;;5053221;28;20488;-72
2022/01/19 09:56:20;;;;;;;50.45;28.00;;;5.20;99.90;;;;;;5055472;28;20061;-72
2022/01/19 09:58:47;;;;;;;51.53;28.80;;;5.30;99.90;;;;;;5051835;28;20075;-71
2022/01/19 10:01:18;;;;;;;50.35;27.08;;;5.30;99.90;;;;;;5053282;28;20163;-74
2022/01/19 10:03:44;;;;;;;48.95;27.38;;;5.30;99.90;;;;;;5050668;28;20045;-69
2022/01/19 10:06:11;;;;;;;49.00;27.42;;;5.30;99.90;;;;;;5058615;28;20489;-69
2022/01/19 10:08:43;;;;;;;48.03;28.35;;;5.40;99.90;;;;;;5055345;28;20068;-68
2022/01/19 10:11:15;;;;;;;48.50;26.15;;;5.40;99.90;;;;;;5052056;28;20048;-69
2022/01/19 10:19:21;;;;;;;47.22;26.92;;;5.40;99.90;;;;;;5051501;28;20433;-72
2022/01/19 10:22:08;;;;;;;49.33;26.98;;;5.40;99.90;;;;;;5051514;28;20072;-71
2022/01/19 10:24:48;;;;;;;46.88;26.98;;;5.40;99.90;;;;;;5052623;28;20085;-70
2022/01/19 10:27:39;;;;;;;50.15;27.90;;;5.40;99.90;;;;;;5049488;28;20044;-70
2022/01/19 10:30:05;;;;;;;49.70;28.08;;;5.40;99.90;;;;;;5034617;28;20056;-71
2022/01/19 10:32:36;;;;;;;53.03;29.35;;;5.40;99.90;;;;;;5049896;28;20049;-70
2022/01/19 10:35:23;;;;;;;56.90;30.65;;;5.30;99.90;;;;;;5052258;28;20041;-71
2022/01/19 10:38:09;;;;;;;50.05;28.00;;;5.40;99.90;;;;;;5036239;28;20087;-70
2022/01/19 10:40:37;;;;;;;59.88;30.90;;;5.40;99.90;;;;;;5049329;28;20067;-71
2022/01/19 10:43:39;;;;;;;56.47;30.27;;;5.40;99.90;;;;;;5052013;28;20040;-70
2022/01/19 10:46:31;;;;;;;56.40;31.15;;;5.50;99.90;;;;;;5051092;28;20068;-70
2022/01/19 10:48:58;;;;;;;61.42;32.38;;;5.50;99.90;;;;;;5058116;28;20523;-71
2022/01/19 10:51:28;;;;;;;61.28;33.17;;;5.50;99.90;;;;;;5050381;28;20053;-70
2022/01/19 10:54:09;;;;;;;58.78;32.55;;;5.40;99.90;;;;;;5050348;28;20053;-70
2022/01/19 10:56:35;;;;;;;53.05;30.17;;;5.50;99.90;;;;;;5030598;28;20136;-69
2022/01/19 10:59:08;;;;;;;62.75;33.85;;;5.50;99.90;;;;;;5058424;28;20224;-70
2022/01/19 11:01:42;;;;;;;61.00;32.72;;;5.50;99.90;;;;;;5057758;28;20048;-71
2022/01/19 11:04:28;;;;;;;61.22;32.90;;;5.50;99.90;;;;;;5050791;28;20135;-71
2022/01/19 11:06:58;;;;;;;71.15;35.45;;;5.50;99.90;;;;;;5051990;28;20052;-69
2022/01/19 11:09:27;;;;;;;61.10;33.35;;;5.40;99.90;;;;;;5049522;28;20041;-68
2022/01/19 11:11:56;;;;;;;67.50;33.95;;;5.40;99.90;;;;;;5051984;28;20052;-69
2022/01/19 11:14:24;;;;;;;63.72;34.10;;;5.40;99.90;;;;;;5048146;28;20036;-69
2022/01/19 11:16:51;;;;;;;67.63;34.95;;;5.50;99.90;;;;;;5050243;28;20091;-70
2022/01/19 11:19:18;;;;;;;58.45;34.00;;;5.50;99.90;;;;;;5036006;28;20129;-69
2022/01/19 11:22:05;;;;;;;62.22;34.63;;;5.50;99.90;;;;;;5042922;28;20095;-71
2022/01/19 11:24:55;;;;;;;67.78;36.13;;;5.50;99.90;;;;;;5047114;28;20418;-70
2022/01/19 11:27:22;;;;;;;72.20;36.70;;;5.60;99.90;;;;;;5033160;28;20175;-69
2022/01/19 11:30:13;;;;;;;61.13;32.92;;;5.60;99.90;;;;;;5045360;28;20054;-70
2022/01/19 11:32:39;;;;;;;74.15;37.38;;;5.60;99.90;;;;;;5043578;28;20088;-70
2022/01/19 11:35:06;;;;;;;69.43;36.60;;;5.60;99.90;;;;;;5051316;28;20037;-71
2022/01/19 11:37:43;;;;;;;72.10;36.42;;;5.50;99.90;;;;;;5049762;28;20057;-69
2022/01/19 11:40:12;;;;;;;73.20;38.30;;;5.40;99.90;;;;;;5050776;28;20061;-70
2022/01/19 11:42:38;;;;;;;77.53;38.15;;;5.50;99.90;;;;;;5049961;28;20500;-69
2022/01/19 11:45:07;;;;;;;68.55;36.90;;;5.50;99.90;;;;;;5051210;28;20049;-68
2022/01/19 11:47:33;;;;;;;71.47;36.72;;;5.50;99.90;;;;;;5052192;28;20112;-71
2022/01/19 11:50:09;;;;;;;69.20;36.45;;;5.60;99.90;;;;;;5055043;28;20171;-71
2022/01/19 11:52:37;;;;;;;72.82;37.55;;;5.70;99.90;;;;;;5040747;28;20108;-70
2022/01/19 11:55:21;;;;;;;73.53;38.10;;;5.60;99.90;;;;;;5038899;28;20077;-70
2022/01/19 11:58:01;;;;;;;67.60;37.38;;;5.70;99.90;;;;;;5055003;28;20055;-71
2022/01/19 12:00:31;;;;;;;70.57;35.78;;;5.60;99.90;;;;;;5051495;28;20056;-70
2022/01/19 12:02:58;;;;;;;65.32;35.90;;;5.70;99.90;;;;;;5054178;28;20521;-69
2022/01/19 12:05:26;;;;;;;63.20;34.40;;;5.70;99.90;;;;;;5054327;28;20148;-69
2022/01/19 12:08:16;;;;;;;72.15;36.92;;;5.80;99.90;;;;;;5055538;28;20105;-70
2022/01/19 12:10:46;;;;;;;63.55;33.58;;;5.70;99.90;;;;;;5051595;28;20039;-70
2022/01/19 12:16:52;;;;;;;63.25;34.63;;;5.70;99.90;;;;;;5052105;28;20206;-70
2022/01/19 12:19:20;;;;;;;63.35;33.70;;;5.70;99.90;;;;;;5004646;28;20053;-70
2022/01/19 12:21:50;;;;;;;62.90;34.75;;;5.60;99.90;;;;;;5049076;28;20045;-70
2022/01/19 12:24:37;;;;;;;70.22;37.00;;;5.70;99.90;;;;;;5048294;28;20076;-69
2022/01/19 12:27:31;;;;;;;61.58;35.88;;;5.70;99.90;;;;;;5048494;28;20070;-68
2022/01/19 12:30:06;;;;;;;67.57;35.13;;;5.80;99.90;;;;;;5049893;28;20052;-70
2022/01/19 12:32:33;;;;;;;64.18;34.92;;;5.80;99.90;;;;;;5051912;28;20131;-70
2022/01/19 12:35:05;;;;;;;64.00;35.58;;;5.80;99.90;;;;;;5052455;28;20041;-70
2022/01/19 12:37:36;;;;;;;63.25;35.17;;;5.80;99.90;;;;;;5052985;28;20041;-69
2022/01/19 12:40:17;;;;;;;63.33;34.22;;;5.70;99.90;;;;;;5051229;28;20060;-70
2022/01/19 12:42:54;;;;;;;64.38;35.30;;;5.80;99.90;;;;;;5046371;28;20052;-70
2022/01/19 12:45:25;;;;;;;65.22;35.53;;;5.70;99.90;;;;;;5030572;28;20056;-69
2022/01/19 12:47:57;;;;;;;64.63;33.67;;;5.70;99.90;;;;;;5050992;28;20037;-69
2022/01/19 12:50:28;;;;;;;62.00;34.30;;;5.70;99.90;;;;;;5051264;28;20524;-71
2022/01/19 12:52:59;;;;;;;63.25;33.75;;;5.70;99.90;;;;;;5047124;28;20159;-68
2022/01/19 12:55:32;;;;;;;58.60;33.92;;;5.70;99.90;;;;;;5046638;28;20491;-70
2022/01/19 12:57:59;;;;;;;62.35;34.78;;;5.70;99.90;;;;;;5040456;28;20131;-71
2022/01/19 13:00:30;;;;;;;58.70;30.75;;;5.70;99.90;;;;;;5052097;28;20049;-71
2022/01/19 13:02:59;;;;;;;61.50;34.25;;;5.60;99.90;;;;;;5051766;28;20051;-70
2022/01/19 13:05:29;;;;;;;60.70;34.05;;;5.60;99.90;;;;;;5047678;28;20052;-71
2022/01/19 13:08:00;;;;;;;62.40;33.55;;;5.70;99.90;;;;;;5047753;28;20049;-71
2022/01/19 13:15:47;;;;;;;57.90;32.20;;;5.70;99.90;;;;;;5047398;28;20505;-72
2022/01/19 13:18:17;;;;;;;55.33;29.83;;;5.80;99.90;;;;;;5045803;28;20045;-70
2022/01/19 13:20:50;;;;;;;60.83;33.15;;;5.70;99.90;;;;;;5063029;28;20089;-71
2022/01/19 13:23:16;;;;;;;55.97;31.23;;;5.80;99.90;;;;;;5062701;28;20048;-71
2022/01/19 13:25:42;;;;;;;53.88;31.58;;;5.80;99.90;;;;;;5047869;28;20892;-70
2022/01/19 13:28:07;;;;;;;55.28;30.88;;;5.80;99.90;;;;;;5047003;28;20056;-71
2022/01/19 13:30:34;;;;;;;54.72;31.77;;;5.90;99.90;;;;;;5047146;28;20353;-72
2022/01/19 13:33:11;;;;;;;55.22;30.52;;;5.90;99.90;;;;;;5047500;28;20051;-70
2022/01/19 13:35:38;;;;;;;57.88;31.48;;;6.00;99.90;;;;;;5047742;28;20642;-69
2022/01/19 13:38:10;;;;;;;53.67;30.20;;;6.00;99.90;;;;;;5048900;28;20188;-72
2022/01/19 13:40:36;;;;;;;60.55;31.50;;;6.00;99.90;;;;;;5046566;28;20045;-71
2022/01/19 13:43:08;;;;;;;54.97;31.23;;;6.00;99.90;;;;;;5045692;28;20044;-71
2022/01/19 13:48:28;;;;;;;53.45;30.02;;;6.00;99.90;;;;;;5046912;28;20100;-71
2022/01/19 13:51:05;;;;;;;53.28;30.08;;;5.90;99.90;;;;;;5048592;28;20195;-73
2022/01/19 13:53:33;;;;;;;57.55;31.63;;;5.90;99.90;;;;;;5048984;28;20045;-70
2022/01/19 13:56:01;;;;;;;58.10;30.75;;;5.90;99.90;;;;;;5048475;28;20076;-71
2022/01/19 13:58:40;;;;;;;50.75;29.80;;;5.90;99.90;;;;;;5048144;28;20045;-70
2022/01/19 14:01:13;;;;;;;59.88;31.42;;;5.90;99.90;;;;;;5048156;28;20057;-70
2022/01/19 14:03:58;;;;;;;56.00;30.08;;;5.90;99.90;;;;;;5030818;28;20148;-71
2022/01/19 14:06:32;;;;;;;47.70;28.15;;;5.90;99.90;;;;;;5043998;28;20038;-71
2022/01/19 14:09:13;;;;;;;55.92;30.75;;;6.00;99.90;;;;;;5038222;28;20045;-71
2022/01/19 14:11:41;;;;;;;52.47;30.33;;;5.90;99.90;;;;;;5049051;28;20049;-70
2022/01/19 14:14:11;;;;;;;58.78;30.95;;;5.90;99.90;;;;;;5045928;28;20057;-70
2022/01/19 14:16:47;;;;;;;56.17;30.05;;;5.90;99.90;;;;;;5047644;28;20215;-70
2022/01/19 14:19:24;;;;;;;56.40;31.88;;;5.90;99.90;;;;;;5041884;28;20597;-68
2022/01/19 14:21:54;;;;;;;60.03;30.63;;;5.80;99.90;;;;;;5044108;28;20056;-68
2022/01/19 14:24:19;;;;;;;56.15;30.35;;;5.80;99.90;;;;;;5043772;28;20133;-68
2022/01/19 14:26:53;;;;;;;54.40;30.30;;;5.90;99.90;;;;;;5050034;28;20128;-68